logo
Rechercher aéroport 
image banner adimage banner adimage banner ad
image banner ad

FACG - Caledon

Situé à , South Africa

ICAO - , IATA -

Données fournies par Airmate  

Information générale

Coordonnées: S34°15'34" E19°24'58"
Élévation : 938 feet MSL.
 
Voir autres Aéroports à Western Cape

Données opérationnelles

Special qualification required
Heure actuelle UTC:
Heure actuelle locale:
Météo à : - ( 0 km )
METAR: CYAT 290804Z AUTO 03009KT 350V050 6SM -SN FEW012 OVC020 M00/M02 A3025 RMK SLP247
Voir NOTAMs / SUP AIP / TFR affectant cet aéroport [VIEW]
Fréquences de communication: [VIEW]

Pistes:

Identifiant RWYQFULongueur (ft)Largeur (ft)SurfaceLDA (ft)
0770°2723164SAND
25250°2723164SAND
13110°2625115SAND
31290°2625115SAND

Coordonnées de l'aéroport

Adresse: South Africa

Vue satellite de FACG